Time;durP1;ratioP1;P1;durP2;ratioP2;P2;SDS_P1;SDS_P2;PMS_P1;PMS_P2;Temp;Humidity;BMP_temperature;BMP_pressure;BME280_temperature;BME280_humidity;BME280_pressure;Samples;Min_cycle;Max_cycle;Signal;HPM_P1;HPM_P2
2021/07/21 00:00:25;;;;;;;;;20.00;17.50;;;;;-143.39;100.00;63593.47;4884742;29;45351;-80
2021/07/21 00:02:51;;;;;;;;;20.50;15.25;;;;;-143.39;100.00;63593.47;4886760;29;45251;-80
2021/07/21 00:05:18;;;;;;;;;19.50;16.00;;;;;-143.39;100.00;63593.47;4876171;29;45375;-80
2021/07/21 00:07:43;;;;;;;;;17.00;12.75;;;;;-143.39;100.00;63593.47;4872532;29;48447;-80
2021/07/21 00:10:11;;;;;;;;;21.00;19.25;;;;;-143.39;100.00;63593.47;4872984;29;44720;-80
2021/07/21 00:15:24;;;;;;;;;19.50;16.00;;;;;-143.39;100.00;63593.47;4883856;29;45328;-80
2021/07/21 00:17:58;;;;;;;;;19.00;16.25;;;;;-143.39;100.00;63593.47;4885078;29;45460;-80
2021/07/21 00:20:24;;;;;;;;;19.00;16.00;;;;;-143.39;100.00;63593.47;4884703;29;45498;-80
2021/07/21 00:22:50;;;;;;;;;21.00;18.00;;;;;-143.39;100.00;63593.47;4882709;29;45321;-80
2021/07/21 00:25:16;;;;;;;;;18.00;15.25;;;;;-143.39;100.00;63593.47;4875457;29;45421;-80
2021/07/21 00:27:43;;;;;;;;;13.75;13.00;;;;;-143.39;100.00;63593.47;4884557;29;46435;-80
2021/07/21 00:30:12;;;;;;;;;18.50;17.25;;;;;-143.39;100.00;63593.47;4886080;29;45437;-80
2021/07/21 00:32:38;;;;;;;;;21.00;16.25;;;;;-143.39;100.00;63593.47;4867986;29;45254;-80
2021/07/21 00:35:06;;;;;;;;;18.00;17.25;;;;;-143.39;100.00;63593.47;4885107;29;46306;-80
2021/07/21 00:37:32;;;;;;;;;17.50;16.75;;;;;-143.39;100.00;63593.47;4887177;29;45446;-80
2021/07/21 00:39:57;;;;;;;;;21.00;17.00;;;;;-143.39;100.00;63593.47;4870289;29;45347;-80
2021/07/21 00:42:23;;;;;;;;;17.25;16.00;;;;;-143.39;100.00;63593.47;4886300;29;45329;-80
2021/07/21 00:44:48;;;;;;;;;19.25;16.75;;;;;-143.39;100.00;63593.47;4868313;29;45444;-80
2021/07/21 00:47:13;;;;;;;;;22.50;18.50;;;;;-143.39;100.00;63593.47;4887772;29;45451;-80
2021/07/21 00:49:40;;;;;;;;;21.00;19.50;;;;;-143.39;100.00;63593.47;4885252;29;45485;-80
2021/07/21 00:52:08;;;;;;;;;21.50;18.00;;;;;-143.39;100.00;63593.47;4884806;29;45351;-80
2021/07/21 00:54:35;;;;;;;;;24.50;20.00;;;;;-143.39;100.00;63593.47;4882661;29;45389;-80
2021/07/21 00:57:01;;;;;;;;;23.00;17.00;;;;;-143.39;100.00;63593.47;4867287;29;46975;-80
2021/07/21 00:59:27;;;;;;;;;23.50;20.00;;;;;-143.39;100.00;63593.47;4884626;29;45543;-80
2021/07/21 01:01:53;;;;;;;;;21.50;18.75;;;;;-143.39;100.00;63593.47;4883772;29;45373;-79
2021/07/21 01:04:18;;;;;;;;;22.25;17.50;;;;;-143.39;100.00;63593.47;4871742;29;47105;-79
2021/07/21 01:06:43;;;;;;;;;17.75;16.25;;;;;-143.39;100.00;63593.47;4883888;29;46402;-79
2021/07/21 01:09:10;;;;;;;;;22.50;19.75;;;;;-143.39;100.00;63593.47;4883585;29;45351;-79
2021/07/21 01:11:45;;;;;;;;;20.75;16.25;;;;;-143.39;100.00;63593.47;4884642;29;45453;-79
2021/07/21 01:14:48;;;;;;;;;23.50;20.25;;;;;-143.39;100.00;63593.47;4866358;29;45441;-79
2021/07/21 01:17:21;;;;;;;;;22.25;18.00;;;;;-143.39;100.00;63593.47;4868250;29;47310;-79
2021/07/21 01:19:46;;;;;;;;;18.75;17.50;;;;;-143.39;100.00;63593.47;4868374;29;45654;-79
2021/07/21 01:22:29;;;;;;;;;17.00;14.75;;;;;-143.39;100.00;63593.47;4868979;29;45443;-79
2021/07/21 01:25:05;;;;;;;;;21.00;17.50;;;;;-143.39;100.00;63593.47;4870002;29;46488;-79
2021/07/21 01:27:43;;;;;;;;;21.25;16.75;;;;;-143.39;100.00;63593.47;4887124;29;45274;-79
2021/07/21 01:30:13;;;;;;;;;22.00;18.50;;;;;-143.39;100.00;63593.47;4886803;29;45476;-79
2021/07/21 01:32:44;;;;;;;;;27.75;19.25;;;;;-143.39;100.00;63593.47;4882249;29;45190;-79
2021/07/21 01:35:15;;;;;;;;;24.50;20.50;;;;;-143.39;100.00;63593.47;4869680;29;45436;-80
2021/07/21 01:37:46;;;;;;;;;20.25;17.75;;;;;-143.39;100.00;63593.47;4887008;29;45322;-79
2021/07/21 01:40:19;;;;;;;;;19.50;18.00;;;;;-143.39;100.00;63593.47;4886676;29;45228;-79
2021/07/21 01:42:46;;;;;;;;;23.50;15.50;;;;;-143.39;100.00;63593.47;4882290;29;45494;-79
2021/07/21 01:45:12;;;;;;;;;20.00;17.75;;;;;-143.39;100.00;63593.47;4886850;29;45378;-79
2021/07/21 01:47:39;;;;;;;;;20.75;15.75;;;;;-143.39;100.00;63593.47;4886108;29;45393;-79
2021/07/21 01:50:06;;;;;;;;;26.25;21.25;;;;;-143.39;100.00;63593.47;4886045;29;45399;-79
2021/07/21 01:52:32;;;;;;;;;23.25;18.00;;;;;-143.39;100.00;63593.47;4882090;29;45604;-79
2021/07/21 01:55:02;;;;;;;;;23.50;20.25;;;;;-143.39;100.00;63593.47;4886159;29;45510;-79
2021/07/21 01:57:30;;;;;;;;;23.75;19.00;;;;;-143.39;100.00;63593.47;4869481;29;47143;-79
2021/07/21 01:59:58;;;;;;;;;24.25;16.00;;;;;-143.39;100.00;63593.47;4886056;29;45222;-79
2021/07/21 02:02:26;;;;;;;;;20.00;17.00;;;;;-143.39;100.00;63593.47;4877873;29;45462;-79
2021/07/21 02:04:52;;;;;;;;;22.50;19.00;;;;;-143.39;100.00;63593.47;4867731;29;45511;-79
2021/07/21 02:07:18;;;;;;;;;20.75;19.25;;;;;-143.39;100.00;63593.47;4886431;29;45444;-79
2021/07/21 02:09:46;;;;;;;;;21.75;17.50;;;;;-143.39;100.00;63593.47;4886159;29;45174;-79
2021/07/21 02:12:12;;;;;;;;;24.50;17.75;;;;;-143.39;100.00;63593.47;4864943;29;45558;-79
2021/07/21 02:14:39;;;;;;;;;24.75;17.00;;;;;-143.39;100.00;63593.47;4883973;29;45441;-79
2021/07/21 02:17:06;;;;;;;;;25.25;19.25;;;;;-143.39;100.00;63593.47;4886226;29;46544;-79
2021/07/21 02:19:31;;;;;;;;;22.75;18.50;;;;;-143.39;100.00;63593.47;4881993;29;45552;-79
2021/07/21 02:21:58;;;;;;;;;23.25;16.00;;;;;-143.39;100.00;63593.47;4858099;29;45293;-79
2021/07/21 02:24:24;;;;;;;;;26.00;20.75;;;;;-143.39;100.00;63593.47;4881362;29;45582;-79
2021/07/21 02:26:49;;;;;;;;;23.25;18.25;;;;;-143.39;100.00;63593.47;4885663;29;45597;-79
2021/07/21 02:29:15;;;;;;;;;24.25;21.50;;;;;-143.39;100.00;63593.47;4885297;29;45438;-79
2021/07/21 02:31:58;;;;;;;;;21.50;19.50;;;;;-143.39;100.00;63593.47;4869313;29;45318;-79
2021/07/21 02:34:24;;;;;;;;;25.25;23.00;;;;;-143.39;100.00;63593.47;4882692;29;45247;-79
2021/07/21 02:36:50;;;;;;;;;28.25;20.75;;;;;-143.39;100.00;63593.47;4885419;29;45314;-79
2021/07/21 02:39:15;;;;;;;;;23.50;19.75;;;;;-143.39;100.00;63593.47;4885904;29;45487;-79
2021/07/21 02:41:43;;;;;;;;;22.75;21.00;;;;;-143.39;100.00;63593.47;4886045;29;45337;-79
2021/07/21 02:44:08;;;;;;;;;25.00;21.00;;;;;-143.39;100.00;63593.47;4881955;29;45543;-79
2021/07/21 02:46:34;;;;;;;;;27.25;21.25;;;;;-143.39;100.00;63593.47;4885523;29;45474;-79
2021/07/21 02:49:00;;;;;;;;;23.00;19.75;;;;;-143.39;100.00;63593.47;4885599;29;45425;-79
2021/07/21 02:51:35;;;;;;;;;20.25;20.00;;;;;-143.39;100.00;63593.47;4868847;29;45617;-79
2021/07/21 02:54:11;;;;;;;;;22.25;19.25;;;;;-143.39;100.00;63593.47;4866911;29;45522;-79
2021/07/21 02:56:54;;;;;;;;;24.50;20.25;;;;;-143.39;100.00;63593.47;4877813;29;46511;-79
2021/07/21 02:59:23;;;;;;;;;24.50;21.00;;;;;-143.39;100.00;63593.47;4873915;29;45698;-80
2021/07/21 03:01:49;;;;;;;;;28.50;22.25;;;;;-143.39;100.00;63593.47;4868910;29;45269;-79
2021/07/21 03:04:22;;;;;;;;;23.25;22.00;;;;;-143.39;100.00;63593.47;4881262;29;45502;-79
2021/07/21 03:06:50;;;;;;;;;29.75;19.50;;;;;-143.39;100.00;63593.47;4885478;29;45619;-79
2021/07/21 03:09:20;;;;;;;;;26.00;23.50;;;;;-143.39;100.00;63593.47;4885426;29;45242;-79
2021/07/21 03:11:50;;;;;;;;;24.00;21.00;;;;;-143.39;100.00;63593.47;4868408;29;45539;-79
2021/07/21 03:14:18;;;;;;;;;21.50;19.25;;;;;-143.39;100.00;63593.47;4863756;29;45778;-79
2021/07/21 03:16:46;;;;;;;;;29.00;22.25;;;;;-143.39;100.00;63593.47;4880911;29;45392;-79
2021/07/21 03:19:14;;;;;;;;;20.00;16.25;;;;;-143.39;100.00;63593.47;4884003;29;45550;-79
2021/07/21 03:21:40;;;;;;;;;24.00;19.00;;;;;-143.39;100.00;63593.47;4881421;29;45410;-79
2021/07/21 03:24:06;;;;;;;;;23.00;17.50;;;;;-143.39;100.00;63593.47;4881844;29;45671;-79
2021/07/21 03:26:33;;;;;;;;;22.50;18.50;;;;;-143.39;100.00;63593.47;4884617;29;46482;-79
2021/07/21 03:28:59;;;;;;;;;22.75;19.75;;;;;-143.39;100.00;63593.47;4868368;29;45489;-79
2021/07/21 03:31:25;;;;;;;;;20.25;18.50;;;;;-143.39;100.00;63593.47;4885085;29;45403;-79
2021/07/21 03:34:04;;;;;;;;;21.00;16.75;;;;;-143.39;100.00;63593.47;4860880;29;45349;-79
2021/07/21 03:36:35;;;;;;;;;24.75;19.00;;;;;-143.39;100.00;63593.47;4867038;29;45429;-78
2021/07/21 03:39:02;;;;;;;;;19.25;18.00;;;;;-143.39;100.00;63593.47;4885138;29;45495;-79
2021/07/21 03:41:31;;;;;;;;;23.00;18.25;;;;;-143.39;100.00;63593.47;4866288;29;45280;-79
2021/07/21 03:43:56;;;;;;;;;19.00;18.00;;;;;-143.39;100.00;63593.47;4880169;29;45487;-79
2021/07/21 03:46:22;;;;;;;;;20.25;18.50;;;;;-143.39;100.00;63593.47;4884656;29;45492;-79
2021/07/21 03:48:48;;;;;;;;;24.00;18.00;;;;;-143.39;100.00;63593.47;4884573;29;45371;-79
2021/07/21 03:51:14;;;;;;;;;25.75;21.50;;;;;-143.39;100.00;63593.47;4884758;29;45520;-79
2021/07/21 03:53:41;;;;;;;;;24.75;17.25;;;;;-143.39;100.00;63593.47;4881564;29;45554;-79
2021/07/21 03:56:08;;;;;;;;;23.25;19.50;;;;;-143.39;100.00;63593.47;4867298;29;46336;-78
2021/07/21 03:58:34;;;;;;;;;23.75;16.25;;;;;-143.39;100.00;63593.47;4884938;29;45189;-79
2021/07/21 04:01:00;;;;;;;;;20.25;18.50;;;;;-143.39;100.00;63593.47;4885013;29;46484;-79
2021/07/21 04:03:28;;;;;;;;;20.50;19.50;;;;;-143.39;100.00;63593.47;4878356;29;45512;-79
2021/07/21 04:05:55;;;;;;;;;27.75;21.75;;;;;-143.39;100.00;63593.47;4876489;29;47619;-78
2021/07/21 04:08:22;;;;;;;;;25.50;20.25;;;;;-143.39;100.00;63593.47;4884562;29;45418;-79
2021/07/21 04:10:52;;;;;;;;;28.50;20.75;;;;;-143.39;100.00;63593.47;4884179;29;45397;-79
2021/07/21 04:13:19;;;;;;;;;22.00;19.75;;;;;-143.39;100.00;63593.47;4879721;29;46148;-79
2021/07/21 04:15:47;;;;;;;;;29.00;19.75;;;;;-143.39;100.00;63593.47;4867370;29;46312;-79
2021/07/21 04:18:13;;;;;;;;;22.50;17.25;;;;;-143.39;100.00;63593.47;4867586;29;45349;-79
2021/07/21 04:20:40;;;;;;;;;17.50;15.00;;;;;-143.39;100.00;63593.47;4873818;29;45160;-79
2021/07/21 04:23:06;;;;;;;;;21.00;18.00;;;;;-143.39;100.00;63593.47;4861691;29;45530;-79
2021/07/21 04:25:32;;;;;;;;;25.50;20.50;;;;;-143.39;100.00;63593.47;4878827;29;45437;-79
2021/07/21 04:27:58;;;;;;;;;21.50;21.00;;;;;-143.39;100.00;63593.47;4884358;29;45479;-79
2021/07/21 04:30:27;;;;;;;;;25.00;20.25;;;;;-143.39;100.00;63593.47;4883911;29;45385;-79
2021/07/21 04:32:54;;;;;;;;;27.50;18.00;;;;;-143.39;100.00;63593.47;4878161;29;45567;-79
2021/07/21 04:35:20;;;;;;;;;27.00;22.00;;;;;-143.39;100.00;63593.47;4867387;29;46741;-79
2021/07/21 04:37:46;;;;;;;;;25.50;21.25;;;;;-143.39;100.00;63593.47;4867499;29;45377;-79
2021/07/21 04:40:13;;;;;;;;;22.50;19.00;;;;;-143.39;100.00;63593.47;4884170;29;45327;-79
2021/07/21 04:42:40;;;;;;;;;25.50;22.50;;;;;-143.39;100.00;63593.47;4880394;29;45423;-79
2021/07/21 04:45:06;;;;;;;;;21.25;19.00;;;;;-143.39;100.00;63593.47;4861130;29;48405;-79
2021/07/21 04:47:35;;;;;;;;;27.50;22.00;;;;;-143.39;100.00;63593.47;4884035;29;45268;-79
2021/07/21 04:50:03;;;;;;;;;22.25;20.75;;;;;-143.39;100.00;63593.47;4882936;29;45340;-79
2021/07/21 04:52:29;;;;;;;;;26.25;19.00;;;;;-143.39;100.00;63593.47;4881584;29;45611;-79
2021/07/21 04:54:54;;;;;;;;;22.75;20.25;;;;;-143.39;100.00;63593.47;4887268;29;45526;-79
2021/07/21 04:57:22;;;;;;;;;28.25;21.50;;;;;-143.39;100.00;63593.47;4887148;29;45460;-79
2021/07/21 04:59:47;;;;;;;;;22.50;19.50;;;;;-143.39;100.00;63593.47;4887673;29;45378;-79
2021/07/21 05:02:13;;;;;;;;;28.50;21.25;;;;;-143.39;100.00;63593.47;4883560;29;45226;-79
2021/07/21 05:04:38;;;;;;;;;23.50;19.25;;;;;-143.39;100.00;63593.47;4880167;29;45987;-79
2021/07/21 05:07:04;;;;;;;;;24.25;22.25;;;;;-143.39;100.00;63593.47;4886752;29;45336;-79
2021/07/21 05:09:29;;;;;;;;;24.75;19.25;;;;;-143.39;100.00;63593.47;4887306;29;45290;-79
2021/07/21 05:11:55;;;;;;;;;25.00;19.00;;;;;-143.39;100.00;63593.47;4884407;29;45244;-79
2021/07/21 05:14:20;;;;;;;;;24.50;19.50;;;;;-143.39;100.00;63593.47;4884821;29;45941;-79
2021/07/21 05:16:45;;;;;;;;;21.25;20.50;;;;;-143.39;100.00;63593.47;4887204;29;45301;-79
2021/07/21 05:19:11;;;;;;;;;24.75;20.00;;;;;-143.39;100.00;63593.47;4885612;29;45732;-79
2021/07/21 05:21:37;;;;;;;;;29.25;22.25;;;;;-143.39;100.00;63593.47;4884351;29;45598;-79
2021/07/21 05:24:03;;;;;;;;;24.25;20.75;;;;;-143.39;100.00;63593.47;4882797;29;45401;-79
2021/07/21 05:26:28;;;;;;;;;26.50;21.50;;;;;-143.39;100.00;63593.47;4886349;29;45458;-79
2021/07/21 05:28:54;;;;;;;;;27.00;23.50;;;;;-143.39;100.00;63593.47;4886996;29;45455;-79
2021/07/21 05:31:19;;;;;;;;;25.75;22.00;;;;;-143.39;100.00;63593.47;4884100;29;45538;-78
2021/07/21 05:33:44;;;;;;;;;25.75;20.25;;;;;-143.39;100.00;63593.47;4865986;29;45876;-79
2021/07/21 05:36:11;;;;;;;;;26.00;22.00;;;;;-143.39;100.00;63593.47;4882472;29;45382;-79
2021/07/21 05:38:37;;;;;;;;;26.25;21.25;;;;;-143.39;100.00;63593.47;4869632;29;45346;-79
2021/07/21 05:41:05;;;;;;;;;27.50;21.50;;;;;-143.39;100.00;63593.47;4885013;29;45602;-79
2021/07/21 05:43:30;;;;;;;;;24.25;23.25;;;;;-143.39;100.00;63593.47;4859790;29;47322;-80
2021/07/21 05:45:56;;;;;;;;;25.75;21.25;;;;;-143.39;100.00;63593.47;4885522;29;45224;-80
2021/07/21 05:48:22;;;;;;;;;26.75;22.25;;;;;-143.39;100.00;63593.47;4886117;29;45567;-80
2021/07/21 05:50:47;;;;;;;;;20.25;19.00;;;;;-143.39;100.00;63593.47;4886026;29;45318;-80
2021/07/21 05:53:12;;;;;;;;;31.25;22.75;;;;;-143.39;100.00;63593.47;4866297;29;46058;-80
2021/07/21 05:55:38;;;;;;;;;25.00;22.75;;;;;-143.39;100.00;63593.47;4886301;29;45403;-80
2021/07/21 05:58:03;;;;;;;;;27.25;22.50;;;;;-143.39;100.00;63593.47;4886384;29;45504;-79
2021/07/21 06:00:29;;;;;;;;;28.75;21.75;;;;;-143.39;100.00;63593.47;4869123;29;45439;-78
2021/07/21 06:02:54;;;;;;;;;28.25;23.75;;;;;-143.39;100.00;63593.47;4864794;29;47151;-78
2021/07/21 06:05:19;;;;;;;;;24.00;22.50;;;;;-143.39;100.00;63593.47;4885694;29;45346;-78
2021/07/21 06:07:45;;;;;;;;;30.50;25.00;;;;;-143.39;100.00;63593.47;4886743;29;45359;-78
2021/07/21 06:10:11;;;;;;;;;30.25;25.75;;;;;-143.39;100.00;63593.47;4887118;29;45357;-78
2021/07/21 06:12:36;;;;;;;;;31.50;25.25;;;;;-143.39;100.00;63593.47;4875531;29;46301;-78
2021/07/21 06:15:04;;;;;;;;;30.25;24.25;;;;;-143.39;100.00;63593.47;4886706;29;45289;-78
2021/07/21 06:17:30;;;;;;;;;32.25;24.25;;;;;-143.39;100.00;63593.47;4870876;29;45236;-78
2021/07/21 06:19:55;;;;;;;;;30.50;27.00;;;;;-143.39;100.00;63593.47;4885327;29;45489;-79
2021/07/21 06:22:21;;;;;;;;;28.50;23.00;;;;;-143.39;100.00;63593.47;4874580;29;45233;-79
2021/07/21 06:24:46;;;;;;;;;25.25;22.75;;;;;-143.39;100.00;63593.47;4885929;29;45338;-80
2021/07/21 06:27:12;;;;;;;;;28.50;25.00;;;;;-143.39;100.00;63593.47;4869672;29;45517;-80
2021/07/21 06:29:38;;;;;;;;;26.75;24.50;;;;;-143.39;100.00;63593.47;4886277;29;45539;-80
2021/07/21 06:32:04;;;;;;;;;29.50;22.00;;;;;-143.39;100.00;63593.47;4882707;29;45365;-80
2021/07/21 06:34:29;;;;;;;;;30.25;25.25;;;;;-143.39;100.00;63593.47;4867323;29;45507;-79
2021/07/21 06:36:55;;;;;;;;;27.00;23.50;;;;;-143.39;100.00;63593.47;4886017;29;45435;-80
2021/07/21 06:39:20;;;;;;;;;28.75;22.75;;;;;-143.39;100.00;63593.47;4869332;29;45564;-79
2021/07/21 06:41:46;;;;;;;;;30.50;24.75;;;;;-143.39;100.00;63593.47;4888318;29;45342;-80
2021/07/21 06:44:11;;;;;;;;;31.75;26.75;;;;;-143.39;100.00;63593.47;4888706;29;45371;-80
2021/07/21 06:46:37;;;;;;;;;28.75;27.00;;;;;-143.39;100.00;63593.47;4888489;29;46096;-80
2021/07/21 06:49:03;;;;;;;;;34.75;24.00;;;;;-143.39;100.00;63593.47;4890136;29;45459;-79
2021/07/21 06:51:28;;;;;;;;;29.75;27.00;;;;;-143.39;100.00;63593.47;4888510;29;46608;-78
2021/07/21 06:53:54;;;;;;;;;31.00;26.75;;;;;-143.39;100.00;63593.47;4869564;29;46245;-78
2021/07/21 06:56:19;;;;;;;;;30.00;25.75;;;;;-143.39;100.00;63593.47;4884739;29;45436;-78
2021/07/21 06:58:45;;;;;;;;;28.25;24.75;;;;;-143.39;100.00;63593.47;4885986;29;45465;-81
2021/07/21 07:01:10;;;;;;;;;32.75;26.25;;;;;-143.39;100.00;63593.47;4886071;29;45367;-81
2021/07/21 07:03:36;;;;;;;;;35.25;26.50;;;;;-143.39;100.00;63593.47;4871553;29;45362;-82
2021/07/21 07:06:03;;;;;;;;;33.75;26.50;;;;;-143.39;100.00;63593.47;4890058;29;45317;-81
2021/07/21 07:08:32;;;;;;;;;31.75;23.00;;;;;-143.39;100.00;63593.47;4871827;29;45367;-81
2021/07/21 07:10:57;;;;;;;;;31.75;23.50;;;;;-143.39;100.00;63593.47;4871039;29;47206;-81
2021/07/21 07:13:23;;;;;;;;;25.00;23.50;;;;;-143.39;100.00;63593.47;4877087;29;45444;-80
2021/07/21 07:15:50;;;;;;;;;26.25;23.50;;;;;-143.39;100.00;63593.47;4874925;29;45373;-81
2021/07/21 07:18:17;;;;;;;;;26.50;22.25;;;;;-143.39;100.00;63593.47;4876827;29;45571;-81
2021/07/21 07:20:45;;;;;;;;;29.75;24.25;;;;;-143.39;100.00;63593.47;4892155;29;45359;-82
2021/07/21 07:23:14;;;;;;;;;27.25;24.00;;;;;-143.39;100.00;63593.47;4874763;29;45939;-81
2021/07/21 07:25:41;;;;;;;;;27.50;22.75;;;;;-143.39;100.00;63593.47;4872320;29;45280;-81
2021/07/21 07:28:07;;;;;;;;;33.00;24.75;;;;;-143.39;100.00;63593.47;4873395;29;45303;-81
2021/07/21 07:30:34;;;;;;;;;34.25;28.25;;;;;-143.39;100.00;63593.47;4890056;29;46249;-83
2021/07/21 07:32:59;;;;;;;;;29.25;25.25;;;;;-143.39;100.00;63593.47;4885980;29;45807;-82
2021/07/21 07:35:26;;;;;;;;;32.25;27.50;;;;;-143.39;100.00;63593.47;4885262;29;45487;-82
2021/07/21 07:37:51;;;;;;;;;33.25;27.00;;;;;-143.39;100.00;63593.47;4862765;29;45564;-82
2021/07/21 07:40:17;;;;;;;;;25.75;23.00;;;;;-143.39;100.00;63593.47;4881091;29;45383;-82
2021/07/21 07:42:44;;;;;;;;;26.25;24.50;;;;;-143.39;100.00;63593.47;4876063;29;45815;-83
2021/07/21 07:45:10;;;;;;;;;34.75;26.00;;;;;-143.39;100.00;63593.47;4880983;29;45875;-83
2021/07/21 07:47:36;;;;;;;;;25.50;23.75;;;;;-143.39;100.00;63593.47;4883870;29;45448;-82
2021/07/21 07:50:04;;;;;;;;;27.00;24.25;;;;;-143.39;100.00;63593.47;4881711;29;46173;-81
2021/07/21 07:52:29;;;;;;;;;23.25;23.25;;;;;-143.39;100.00;63593.47;4879265;29;45450;-82
2021/07/21 07:54:55;;;;;;;;;27.00;21.75;;;;;-143.39;100.00;63593.47;4879873;29;45483;-81
2021/07/21 07:57:20;;;;;;;;;26.75;23.00;;;;;-143.39;100.00;63593.47;4879264;29;45594;-82
2021/07/21 07:59:45;;;;;;;;;28.50;26.00;;;;;-143.39;100.00;63593.47;4869754;29;46915;-86
2021/07/21 08:02:11;;;;;;;;;29.75;23.25;;;;;-143.39;100.00;63593.47;4861384;29;46023;-86
2021/07/21 08:04:36;;;;;;;;;29.75;21.50;;;;;-143.39;100.00;63593.47;4881194;29;45439;-87
2021/07/21 08:07:02;;;;;;;;;25.75;22.00;;;;;-143.39;100.00;63593.47;4862868;29;45456;-87
2021/07/21 08:09:27;;;;;;;;;26.25;23.25;;;;;-143.39;100.00;63593.47;4883843;29;46345;-86
2021/07/21 08:11:56;;;;;;;;;25.25;24.25;;;;;-143.39;100.00;63593.47;4865348;29;45534;-87
2021/07/21 08:14:26;;;;;;;;;24.25;21.75;;;;;-143.39;100.00;63593.47;4881829;29;45431;-87
2021/07/21 08:16:54;;;;;;;;;31.00;25.75;;;;;-143.39;100.00;63593.47;4880732;29;45629;-86
2021/07/21 08:19:22;;;;;;;;;30.00;23.25;;;;;-143.39;100.00;63593.47;4880543;29;48311;-87
2021/07/21 08:21:48;;;;;;;;;30.75;21.75;;;;;-143.39;100.00;63593.47;4863663;29;45566;-87
2021/07/21 08:24:14;;;;;;;;;23.75;22.25;;;;;-143.39;100.00;63593.47;4881527;29;45442;-88
2021/07/21 08:26:40;;;;;;;;;24.00;23.00;;;;;-143.39;100.00;63593.47;4884188;29;45443;-86
2021/07/21 08:29:08;;;;;;;;;20.25;20.25;;;;;-143.39;100.00;63593.47;4884682;29;45347;-86
2021/07/21 08:31:33;;;;;;;;;22.50;20.50;;;;;-143.39;100.00;63593.47;4876198;29;45598;-87
2021/07/21 08:34:02;;;;;;;;;25.75;20.75;;;;;-143.39;100.00;63593.47;4864663;29;45340;-86
2021/07/21 08:36:31;;;;;;;;;20.75;18.75;;;;;-143.39;100.00;63593.47;4867718;29;45621;-87
2021/07/21 08:38:57;;;;;;;;;21.25;19.75;;;;;-143.39;100.00;63593.47;4877960;29;46970;-87
2021/07/21 08:41:23;;;;;;;;;21.00;19.25;;;;;-143.39;100.00;63593.47;4860376;29;45405;-87
2021/07/21 08:43:48;;;;;;;;;19.75;18.50;;;;;-143.39;100.00;63593.47;4876526;29;45480;-87
2021/07/21 08:46:14;;;;;;;;;18.75;18.25;;;;;-143.39;100.00;63593.47;4878968;29;45639;-88
2021/07/21 08:48:40;;;;;;;;;22.00;19.75;;;;;-143.39;100.00;63593.47;4864001;29;46158;-88
2021/07/21 08:51:09;;;;;;;;;26.75;20.75;;;;;-143.39;100.00;63593.47;4876719;29;45444;-87
2021/07/21 08:53:36;;;;;;;;;21.50;17.25;;;;;-143.39;100.00;63593.47;4881945;29;45510;-88
2021/07/21 08:56:01;;;;;;;;;20.25;18.50;;;;;-143.39;100.00;63593.47;4867005;29;45682;-88
2021/07/21 08:58:27;;;;;;;;;22.50;20.00;;;;;-143.39;100.00;63593.47;4877510;29;46328;-88
2021/07/21 09:00:53;;;;;;;;;23.50;17.50;;;;;-143.39;100.00;63593.47;4861597;29;45328;-88
2021/07/21 09:03:21;;;;;;;;;23.50;20.50;;;;;-143.39;100.00;63593.47;4880255;29;45507;-88
2021/07/21 09:05:48;;;;;;;;;16.25;15.75;;;;;-143.39;100.00;63593.47;4879320;29;45561;-88
2021/07/21 09:08:14;;;;;;;;;17.50;17.25;;;;;-143.39;100.00;63593.47;4879518;29;46551;-88
2021/07/21 09:10:42;;;;;;;;;16.75;16.25;;;;;-143.39;100.00;63593.47;4856414;29;46031;-88
2021/07/21 09:13:08;;;;;;;;;17.25;15.50;;;;;-143.39;100.00;63593.47;4879270;29;45498;-88
2021/07/21 09:15:33;;;;;;;;;17.00;15.75;;;;;-143.39;100.00;63593.47;4884838;29;45483;-89
2021/07/21 09:18:07;;;;;;;;;19.00;17.75;;;;;-143.39;100.00;63593.47;4886002;29;45580;-89
2021/07/21 09:20:42;;;;;;;;;17.75;15.75;;;;;-143.39;100.00;63593.47;4876514;29;45791;-88
2021/07/21 09:23:08;;;;;;;;;17.00;15.25;;;;;-143.39;100.00;63593.47;4881071;29;45482;-91
2021/07/21 09:25:36;;;;;;;;;14.75;14.00;;;;;-143.39;100.00;63593.47;4866350;29;46434;-89
2021/07/21 09:28:06;;;;;;;;;18.00;17.00;;;;;-143.39;100.00;63593.47;4881082;29;45449;-89
2021/07/21 09:30:39;;;;;;;;;14.75;14.75;;;;;-143.39;100.00;63593.47;4879117;29;45462;-89
2021/07/21 09:33:12;;;;;;;;;15.50;15.25;;;;;-143.39;100.00;63593.47;4879099;29;45892;-88
2021/07/21 09:35:40;;;;;;;;;20.00;17.00;;;;;-143.39;100.00;63593.47;4863161;29;46184;-89
2021/07/21 09:38:10;;;;;;;;;16.50;15.75;;;;;-143.39;100.00;63593.47;4873114;29;47242;-90
2021/07/21 09:40:40;;;;;;;;;17.00;15.50;;;;;-143.39;100.00;63593.47;4863381;29;45381;-88
2021/07/21 09:43:15;;;;;;;;;13.75;9.75;;;;;-143.39;100.00;63593.47;4868764;29;45333;-87
2021/07/21 09:45:42;;;;;;;;;17.25;16.25;;;;;-143.39;100.00;63593.47;4884853;29;45454;-91
2021/07/21 09:48:08;;;;;;;;;14.50;13.00;;;;;-143.39;100.00;63593.47;4867011;29;48188;-90
2021/07/21 09:50:35;;;;;;;;;22.75;18.75;;;;;-143.39;100.00;63593.47;4880490;29;45606;-90
2021/07/21 09:53:09;;;;;;;;;21.75;19.50;;;;;-143.39;100.00;63593.47;4867269;29;45370;-89
2021/07/21 09:55:36;;;;;;;;;19.75;18.50;;;;;-143.39;100.00;63593.47;4885185;29;45535;-90
2021/07/21 09:58:11;;;;;;;;;20.50;18.50;;;;;-143.39;100.00;63593.47;4867057;29;46985;-88
2021/07/21 10:00:39;;;;;;;;;20.00;19.25;;;;;-143.39;100.00;63593.47;4882484;29;45507;-89
2021/07/21 10:03:14;;;;;;;;;20.75;19.75;;;;;-143.39;100.00;63593.47;4886651;29;45445;-88
2021/07/21 10:05:58;;;;;;;;;17.75;17.75;;;;;-143.39;100.00;63593.47;4870198;29;45466;-90
2021/07/21 10:08:43;;;;;;;;;19.50;18.50;;;;;-143.39;100.00;63593.47;4885856;29;45688;-91
2021/07/21 10:11:20;;;;;;;;;24.50;19.00;;;;;-143.39;100.00;63593.47;4876781;29;45516;-88
2021/07/21 10:13:46;;;;;;;;;20.00;18.00;;;;;-143.39;100.00;63593.47;4887313;29;45438;-93
2021/07/21 10:16:11;;;;;;;;;18.75;17.25;;;;;-143.39;100.00;63593.47;4888179;29;45444;-92
2021/07/21 10:18:36;;;;;;;;;20.50;19.00;;;;;-143.39;100.00;63593.47;4884714;29;46146;-87
2021/07/21 10:21:02;;;;;;;;;16.75;16.25;;;;;-143.39;100.00;63593.47;4883959;29;45427;-84
2021/07/21 10:23:27;;;;;;;;;19.25;17.00;;;;;-143.39;100.00;63593.47;4886367;29;45212;-86
2021/07/21 10:25:53;;;;;;;;;17.75;17.25;;;;;-143.39;100.00;63593.47;4886694;29;45456;-86
2021/07/21 10:28:19;;;;;;;;;14.25;14.25;;;;;-143.39;100.00;63593.47;4869332;29;46967;-86
2021/07/21 10:30:44;;;;;;;;;18.50;17.75;;;;;-143.39;100.00;63593.47;4854938;29;45449;-87
2021/07/21 10:33:11;;;;;;;;;14.25;13.50;;;;;-143.39;100.00;63593.47;4878322;29;45647;-86
2021/07/21 10:35:37;;;;;;;;;16.25;15.25;;;;;-143.39;100.00;63593.47;4869345;29;45442;-87
2021/07/21 10:38:03;;;;;;;;;17.00;15.50;;;;;-143.39;100.00;63593.47;4886214;29;45907;-85
2021/07/21 10:40:32;;;;;;;;;14.50;14.50;;;;;-143.39;100.00;63593.47;4885274;29;45670;-86
2021/07/21 10:42:59;;;;;;;;;14.50;12.75;;;;;-143.39;100.00;63593.47;4878598;29;45655;-85
2021/07/21 10:45:30;;;;;;;;;16.75;16.25;;;;;-143.39;100.00;63593.47;4875230;29;45153;-85
2021/07/21 10:48:04;;;;;;;;;14.00;13.00;;;;;-143.39;100.00;63593.47;4889500;29;45809;-87
2021/07/21 10:53:51;;;;;;;;;14.00;14.00;;;;;-143.39;100.00;63593.47;4881627;29;45421;-86
2021/07/21 10:59:13;;;;;;;;;17.75;13.75;;;;;-143.39;100.00;63593.47;4885925;29;45625;-86
2021/07/21 11:02:00;;;;;;;;;19.75;16.75;;;;;-143.39;100.00;63593.47;4865075;29;45368;-86
2021/07/21 11:04:42;;;;;;;;;14.75;13.00;;;;;-143.39;100.00;63593.47;4868557;29;45487;-86